Share

قسنطينة, الجزائر

05:35 AM CET on ابریل 25, 2014 (GMT +0100)
Mohamed Boudiaf (DABC) Elev 2277 ft | 36.28 °N, 6.62 °E | Change Station

Current weather conditions updated 5 minutes ago

Scattered Clouds
غيوم متفرقة
48 °F
Feels Like 48 °F
N
0
ريح متغير ريح from شمال
شروق الشمس 5:47 AM
غروب الشمس 7:15 PM
قمر الهلال الأخير

Today is forecast to be Much Cooler than yesterday. زخات مطر مرعدة..

الضغط 29.98 في
وضوح الرؤية 6.2 أميال
سحابات غيوم متفرقة 3000 ft
نقطة الندى 45 °F
الرطوبة 87%
Rainfall 0.00 في
عمق الثلج Not available.
الأشعة فوق البنفسجية 0 out of 16
Pollen Not available.
جودة الهواء Not available.
Flu Activity Not available.
METAR DABC 250430Z 00000KT 9999 SCT030 09/07 Q1015

More Conditions Fewer Conditions

الضغط 29.98 في
وضوح الرؤية 6.2 أميال
سحابات غيوم متفرقة 3000 ft
نقطة الندى 45 °F
الرطوبة 87%
Rainfall 0.00 في
عمق الثلج Not available.
الأشعة فوق البنفسجية 0 out of 16
Pollen Not available.
جودة الهواء Not available.
Flu Activity Not available.
METAR DABC 250430Z 00000KT 9999 SCT030 09/07 Q1015

More Conditions Fewer Conditions

10-Day Weather Forecast

Almanac

علم الفلك

Apr. 25, 2014 Rise Set
Actual Time 5:47 AM CET 7:15 PM CET
Civil Twilight 5:20 AM CET 7:43 PM CET
Nautical Twilight 4:48 AM CET 8:15 PM CET
Astronomical Twilight 4:13 AM CET 8:49 PM CET
قمر 3:18 AM CET 3:27 PM CET
Length Of Visible Light 14h 22m
طول الیوم
13h 28m
Tomorrow will be 2m 4s longer.
الهلال الأخير, 19% of the Moon is Illuminated
هذا اليوم
الهلال الأخير
Apr 29
New
May 6
الربع الاول
May 14
بدر
May 21
الربع الآخر

Yesterday's Extremes

Country Highs Country Lows

Community

  • Deer in evening light
    Deer in evening light
  • Critter
    Critter
  • Jone Runs Falls
    Jone Runs Falls
  • Easter in Shenandoah National Park
    Easter in Shenandoah National Park
  • Sunset at Apalachicola Bay, Florida
    Sunset at Apalachicola Bay, Florida

WunderPhotos

Upload Photos

1,704,850 photos uploaded!

WunderBlogs® & News

Nearby

جودة الهواء

Not available.

عمق الثلج

Not available.

Coastal Water Temperatures

مكان درجات الحرارة
No Stations Reporting

Earthquake Activity

City Distance Mag. Time & Date
No recent earthquake activity has been reported nearby.
Minimum magnitude displayed is 2.5.

Nearby Weather Stations

There are no personal weather stations in this area.

What do you think?

We're not finished. Please let us know what you like, what you don't like, and what you are still missing.